Time;durP1;ratioP1;P1;durP2;ratioP2;P2;SDS_P1;SDS_P2;PMS_P1;PMS_P2;Temp;Humidity;BMP_temperature;BMP_pressure;BME280_temperature;BME280_humidity;BME280_pressure;Samples;Min_cycle;Max_cycle;Signal;HPM_P1;HPM_P2
2024/03/26 00:00:21;;;;;;;7.60;1.40;;;5.50;99.90;;;;;;4982182;28;20034;-53
2024/03/26 00:02:46;;;;;;;3.83;1.27;;;5.50;99.90;;;;;;4986352;28;20034;-53
2024/03/26 00:05:12;;;;;;;5.45;1.55;;;5.50;99.90;;;;;;4988154;28;20027;-54
2024/03/26 00:07:37;;;;;;;7.00;1.50;;;5.50;99.90;;;;;;4986921;28;20482;-56
2024/03/26 00:10:04;;;;;;;4.97;1.70;;;5.50;99.90;;;;;;4990148;28;20442;-55
2024/03/26 00:12:29;;;;;;;6.97;1.92;;;5.50;99.90;;;;;;4991813;28;20038;-55
2024/03/26 00:14:55;;;;;;;5.53;2.03;;;5.50;99.90;;;;;;4991785;28;20027;-52
2024/03/26 00:17:20;;;;;;;9.40;1.38;;;5.50;99.90;;;;;;4989769;28;20054;-52
2024/03/26 00:19:46;;;;;;;8.23;1.75;;;5.50;99.90;;;;;;4992334;28;20030;-57
2024/03/26 00:22:11;;;;;;;9.25;1.40;;;5.60;99.90;;;;;;4992135;28;20054;-55
2024/03/26 00:24:37;;;;;;;6.13;2.00;;;5.50;99.90;;;;;;4992787;28;20033;-52
2024/03/26 00:27:03;;;;;;;4.53;1.30;;;5.50;99.90;;;;;;4992083;28;20030;-54
2024/03/26 00:29:28;;;;;;;3.47;1.55;;;5.50;99.90;;;;;;4990463;28;20038;-56
2024/03/26 00:31:54;;;;;;;5.30;1.67;;;5.40;99.90;;;;;;4985127;28;20097;-53
2024/03/26 00:34:19;;;;;;;2.28;1.05;;;5.40;99.90;;;;;;4988898;28;20057;-54
2024/03/26 00:36:45;;;;;;;6.07;1.55;;;5.40;99.90;;;;;;4989563;28;20030;-54
2024/03/26 00:39:10;;;;;;;8.55;2.05;;;5.40;99.90;;;;;;4987051;28;20042;-55
2024/03/26 00:41:36;;;;;;;5.68;1.10;;;5.40;99.90;;;;;;4990718;28;20037;-54
2024/03/26 00:44:02;;;;;;;3.63;1.50;;;5.40;99.90;;;;;;4986197;28;20502;-57
2024/03/26 00:46:27;;;;;;;4.50;1.50;;;5.40;99.90;;;;;;4986041;28;20105;-54
2024/03/26 00:48:53;;;;;;;2.70;1.17;;;5.30;99.90;;;;;;4983643;28;20506;-57
2024/03/26 00:51:18;;;;;;;6.93;1.73;;;5.30;99.90;;;;;;4989543;28;20018;-56
2024/03/26 00:53:44;;;;;;;3.10;1.80;;;5.40;99.90;;;;;;4988623;28;20026;-57
2024/03/26 00:56:09;;;;;;;3.80;1.63;;;5.40;99.90;;;;;;4989497;28;20149;-56
2024/03/26 00:58:35;;;;;;;5.68;1.30;;;5.40;99.90;;;;;;4989918;28;20030;-54
2024/03/26 01:01:09;;;;;;;6.60;2.08;;;5.40;99.90;;;;;;4987568;28;20526;-55
2024/03/26 01:03:35;;;;;;;4.82;1.42;;;5.40;99.90;;;;;;4984107;28;20034;-57
2024/03/26 01:06:00;;;;;;;2.17;1.25;;;5.30;99.90;;;;;;4991765;28;20030;-56
2024/03/26 01:08:26;;;;;;;6.15;1.50;;;5.30;99.90;;;;;;4987227;28;20027;-54
2024/03/26 01:10:52;;;;;;;4.28;1.52;;;5.20;99.90;;;;;;4991405;28;20073;-55
2024/03/26 01:13:18;;;;;;;3.38;1.40;;;5.20;99.90;;;;;;4987125;28;20418;-55
2024/03/26 01:15:44;;;;;;;4.20;1.40;;;5.20;99.90;;;;;;4985826;28;20031;-56
2024/03/26 01:18:10;;;;;;;6.35;1.65;;;5.20;99.90;;;;;;4989812;28;20577;-55
2024/03/26 01:20:36;;;;;;;4.63;1.52;;;5.20;99.90;;;;;;4988387;28;20101;-54
2024/03/26 01:23:02;;;;;;;3.20;1.42;;;5.20;99.90;;;;;;4991610;28;20029;-54
2024/03/26 01:25:28;;;;;;;1.67;1.08;;;5.20;99.90;;;;;;4985495;28;20023;-54
2024/03/26 01:27:54;;;;;;;4.45;1.48;;;5.20;99.90;;;;;;4992013;28;20045;-54
2024/03/26 01:30:21;;;;;;;2.60;1.20;;;5.20;99.90;;;;;;4982080;28;20458;-54
2024/03/26 01:32:46;;;;;;;4.50;1.48;;;5.20;99.90;;;;;;4997783;23;20129;-57
2024/03/26 01:35:13;;;;;;;3.33;1.10;;;5.30;99.90;;;;;;5001186;28;20094;-55
2024/03/26 01:37:38;;;;;;;4.47;2.15;;;5.30;99.90;;;;;;5011793;28;20022;-55
2024/03/26 01:40:06;;;;;;;5.93;1.60;;;5.30;99.90;;;;;;5002382;28;20045;-55
2024/03/26 01:42:32;;;;;;;4.72;1.20;;;5.30;99.90;;;;;;5004254;28;20030;-56
2024/03/26 01:44:57;;;;;;;3.13;1.20;;;5.40;99.90;;;;;;4990965;28;20022;-53
2024/03/26 01:47:23;;;;;;;5.47;1.42;;;5.30;99.90;;;;;;4984178;28;20026;-56
2024/03/26 01:49:49;;;;;;;2.30;2.10;;;5.30;99.90;;;;;;4988864;28;20041;-53
2024/03/26 01:52:15;;;;;;;7.82;1.40;;;5.40;99.90;;;;;;4983073;28;20030;-53
2024/03/26 01:54:43;;;;;;;8.52;1.60;;;5.50;99.90;;;;;;4987447;28;20509;-55
2024/03/26 01:57:10;;;;;;;4.07;1.08;;;5.50;99.90;;;;;;4983082;28;20035;-55
2024/03/26 01:59:37;;;;;;;4.82;1.20;;;5.50;99.90;;;;;;4987708;28;20049;-55
2024/03/26 02:02:02;;;;;;;2.92;0.82;;;5.50;99.90;;;;;;4988483;28;20030;-56
2024/03/26 02:04:28;;;;;;;3.85;1.52;;;5.50;99.90;;;;;;4988018;28;20026;-53
2024/03/26 02:06:54;;;;;;;3.75;1.05;;;5.40;99.90;;;;;;4993106;28;20038;-56
2024/03/26 02:09:20;;;;;;;5.95;1.30;;;5.40;99.90;;;;;;4995647;28;20073;-54
2024/03/26 02:11:45;;;;;;;1.35;1.15;;;5.40;99.90;;;;;;4993127;28;20026;-54
2024/03/26 02:14:11;;;;;;;3.38;1.52;;;5.40;99.90;;;;;;4989703;28;20022;-54
2024/03/26 02:16:36;;;;;;;4.63;1.35;;;5.40;99.90;;;;;;4988368;28;20033;-54
2024/03/26 02:19:02;;;;;;;6.70;1.50;;;5.30;99.90;;;;;;4991590;28;20026;-56
2024/03/26 02:21:28;;;;;;;7.50;1.58;;;5.20;99.90;;;;;;4991602;28;20030;-53
2024/03/26 02:23:53;;;;;;;4.65;1.70;;;5.20;99.90;;;;;;4989547;28;20022;-53
2024/03/26 02:26:19;;;;;;;6.07;1.70;;;5.20;99.90;;;;;;4990870;28;20068;-55
2024/03/26 02:28:44;;;;;;;4.82;1.30;;;5.30;99.90;;;;;;4989826;28;20113;-56
2024/03/26 02:31:10;;;;;;;2.63;1.00;;;5.30;99.90;;;;;;4985021;28;20042;-57
2024/03/26 02:33:36;;;;;;;5.90;1.20;;;5.30;99.90;;;;;;4986608;28;20027;-57
2024/03/26 02:36:02;;;;;;;1.63;1.15;;;5.30;99.90;;;;;;4991076;28;20053;-54
2024/03/26 02:38:27;;;;;;;1.42;1.20;;;5.30;99.90;;;;;;4987505;28;20114;-54
2024/03/26 02:40:53;;;;;;;6.20;1.45;;;5.30;99.90;;;;;;4982296;28;20550;-53
2024/03/26 02:43:19;;;;;;;3.63;1.50;;;5.40;99.90;;;;;;4977119;28;20031;-53
2024/03/26 02:45:44;;;;;;;3.67;1.50;;;5.40;99.90;;;;;;4994647;28;20752;-53
2024/03/26 02:48:10;;;;;;;5.20;1.52;;;5.40;99.90;;;;;;4994675;28;20019;-55
2024/03/26 02:50:36;;;;;;;7.00;1.15;;;5.30;99.90;;;;;;4990867;28;20426;-54
2024/03/26 02:53:01;;;;;;;4.47;1.67;;;5.30;99.90;;;;;;4989505;28;20034;-56
2024/03/26 02:55:27;;;;;;;6.35;1.30;;;5.30;99.90;;;;;;4993205;28;20034;-56
2024/03/26 02:57:52;;;;;;;2.65;1.10;;;5.40;99.90;;;;;;4991519;28;20041;-57
2024/03/26 03:00:18;;;;;;;2.35;1.02;;;5.40;99.90;;;;;;4994698;28;20455;-53
2024/03/26 03:02:44;;;;;;;6.70;1.08;;;5.40;99.90;;;;;;4993098;28;20026;-55
2024/03/26 03:05:10;;;;;;;5.90;1.17;;;5.50;99.90;;;;;;4991195;28;20029;-59
2024/03/26 03:07:35;;;;;;;2.92;1.13;;;5.50;99.90;;;;;;4994094;28;20509;-55
2024/03/26 03:10:01;;;;;;;1.42;0.85;;;5.50;99.90;;;;;;4982747;28;20038;-55
2024/03/26 03:12:26;;;;;;;2.15;1.38;;;5.50;99.90;;;;;;4993191;28;20026;-54
2024/03/26 03:14:52;;;;;;;4.00;1.45;;;5.50;99.90;;;;;;4990932;28;20062;-55
2024/03/26 03:17:17;;;;;;;6.22;1.92;;;5.50;99.90;;;;;;5008607;28;20057;-53
2024/03/26 03:19:43;;;;;;;2.60;1.25;;;5.50;99.90;;;;;;4992809;28;20025;-54
2024/03/26 03:22:08;;;;;;;7.68;1.25;;;5.50;99.90;;;;;;4986862;28;20018;-54
2024/03/26 03:24:34;;;;;;;4.25;1.25;;;5.50;99.90;;;;;;4992390;28;20105;-53
2024/03/26 03:26:59;;;;;;;7.38;1.10;;;5.40;99.90;;;;;;4990456;28;20039;-56
2024/03/26 03:29:25;;;;;;;7.50;1.77;;;5.50;99.90;;;;;;4992520;28;20030;-56
2024/03/26 03:31:51;;;;;;;7.05;1.13;;;5.40;99.90;;;;;;4990934;28;20029;-57
2024/03/26 03:34:16;;;;;;;4.18;1.58;;;5.40;99.90;;;;;;4992923;28;20037;-54
2024/03/26 03:36:42;;;;;;;4.00;1.08;;;5.40;99.90;;;;;;4985731;28;20022;-54
2024/03/26 03:39:08;;;;;;;3.40;1.50;;;5.40;99.90;;;;;;4989583;28;20057;-56
2024/03/26 03:41:33;;;;;;;4.53;1.15;;;5.50;99.90;;;;;;4993152;28;20401;-54
2024/03/26 03:43:59;;;;;;;3.40;1.02;;;5.50;99.90;;;;;;4989951;28;20077;-56
2024/03/26 03:46:24;;;;;;;5.82;1.70;;;5.50;99.90;;;;;;4993688;28;20105;-53
2024/03/26 03:48:50;;;;;;;3.70;1.10;;;5.50;99.90;;;;;;4993007;28;20371;-54
2024/03/26 03:51:15;;;;;;;1.98;1.20;;;5.50;99.90;;;;;;4993054;28;20058;-55
2024/03/26 03:53:41;;;;;;;4.25;1.13;;;5.50;99.90;;;;;;4993100;28;20057;-55
2024/03/26 03:56:07;;;;;;;3.53;1.20;;;5.50;99.90;;;;;;4988339;28;20061;-53
2024/03/26 03:58:32;;;;;;;2.85;1.00;;;5.50;99.90;;;;;;4988850;28;20121;-56
2024/03/26 04:00:58;;;;;;;2.85;1.05;;;5.50;99.90;;;;;;4981921;28;20019;-55
2024/03/26 04:03:23;;;;;;;3.40;1.17;;;5.50;99.90;;;;;;4992471;28;20045;-53
2024/03/26 04:05:49;;;;;;;5.15;2.03;;;5.60;99.90;;;;;;4987888;28;20030;-56
2024/03/26 04:08:14;;;;;;;4.60;1.48;;;5.60;99.90;;;;;;4982462;28;20066;-56
2024/03/26 04:10:41;;;;;;;3.40;1.48;;;5.50;99.90;;;;;;4986567;28;20032;-55
2024/03/26 04:13:06;;;;;;;2.75;1.20;;;5.50;99.90;;;;;;4987235;28;20042;-55
2024/03/26 04:15:32;;;;;;;2.17;1.20;;;5.60;99.90;;;;;;4985768;28;20035;-56
2024/03/26 04:17:57;;;;;;;3.10;1.52;;;5.50;99.90;;;;;;4985826;28;20038;-56
2024/03/26 04:20:23;;;;;;;1.88;1.00;;;5.60;99.90;;;;;;4991153;28;20053;-55
2024/03/26 04:22:49;;;;;;;3.33;1.30;;;5.50;99.90;;;;;;4984031;28;20082;-56
2024/03/26 04:25:15;;;;;;;6.95;1.80;;;5.60;99.90;;;;;;4990124;28;20033;-56
2024/03/26 04:27:41;;;;;;;5.60;1.50;;;5.60;99.90;;;;;;4989536;28;20046;-55
2024/03/26 04:30:08;;;;;;;8.57;1.50;;;5.60;99.90;;;;;;4986296;28;20068;-56
2024/03/26 04:32:35;;;;;;;2.03;1.30;;;5.60;99.90;;;;;;4989984;28;20054;-54
2024/03/26 04:35:01;;;;;;;6.78;1.17;;;5.60;99.90;;;;;;4982280;28;20038;-56
2024/03/26 04:37:27;;;;;;;5.40;1.08;;;5.60;99.90;;;;;;4980334;28;20035;-56
2024/03/26 04:39:52;;;;;;;3.72;1.92;;;5.60;99.90;;;;;;4983822;28;20630;-52
2024/03/26 04:42:19;;;;;;;2.78;1.35;;;5.60;99.90;;;;;;4991153;28;20110;-56
2024/03/26 04:44:44;;;;;;;5.97;1.88;;;5.50;99.90;;;;;;4987083;28;20053;-56
2024/03/26 04:47:10;;;;;;;4.85;1.95;;;5.50;99.90;;;;;;4992794;28;20026;-53
2024/03/26 04:49:35;;;;;;;5.03;1.45;;;5.60;99.90;;;;;;4996140;28;20121;-55
2024/03/26 04:52:01;;;;;;;2.28;1.15;;;5.50;99.90;;;;;;4984623;28;20037;-53
2024/03/26 04:54:27;;;;;;;4.38;2.10;;;5.40;99.90;;;;;;4992659;28;20390;-56
2024/03/26 04:56:53;;;;;;;3.13;1.17;;;5.50;99.90;;;;;;4992317;28;20098;-53
2024/03/26 04:59:18;;;;;;;5.82;1.85;;;5.50;99.90;;;;;;4986738;28;20031;-54
2024/03/26 05:01:44;;;;;;;3.30;1.02;;;5.50;99.90;;;;;;4991568;28;20030;-56
2024/03/26 05:04:09;;;;;;;3.88;1.20;;;5.50;99.90;;;;;;4985312;28;20045;-55
2024/03/26 05:06:35;;;;;;;3.67;1.27;;;5.50;99.90;;;;;;4990093;28;20026;-55
2024/03/26 05:09:00;;;;;;;6.90;1.55;;;5.40;99.90;;;;;;4988591;28;20026;-54
2024/03/26 05:11:26;;;;;;;5.30;1.38;;;5.50;99.90;;;;;;4990089;28;20034;-54
2024/03/26 05:13:51;;;;;;;4.15;1.40;;;5.40;99.90;;;;;;4984282;28;20638;-57
2024/03/26 05:16:17;;;;;;;3.90;1.27;;;5.40;99.90;;;;;;4987223;28;20038;-54
2024/03/26 05:18:43;;;;;;;8.95;1.35;;;5.40;99.90;;;;;;4984104;28;20034;-54
2024/03/26 05:21:09;;;;;;;5.60;1.65;;;5.30;99.90;;;;;;4985322;28;20544;-53
2024/03/26 05:23:34;;;;;;;7.22;1.65;;;5.30;99.90;;;;;;4990390;28;20057;-53
2024/03/26 05:26:00;;;;;;;3.80;2.05;;;5.30;99.90;;;;;;4980274;28;20054;-55
2024/03/26 05:28:25;;;;;;;1.73;1.15;;;5.30;99.90;;;;;;4983839;28;20041;-56
2024/03/26 05:30:51;;;;;;;4.35;1.52;;;5.40;99.90;;;;;;4989603;28;20027;-56
2024/03/26 05:33:16;;;;;;;3.67;1.33;;;5.40;99.90;;;;;;4987060;28;20042;-54
2024/03/26 05:35:42;;;;;;;4.85;1.55;;;5.40;99.90;;;;;;4988800;28;20092;-55
2024/03/26 05:38:08;;;;;;;5.38;1.75;;;5.50;99.90;;;;;;4987066;28;20065;-55
2024/03/26 05:40:34;;;;;;;4.05;1.40;;;5.50;99.90;;;;;;4990256;28;20117;-56
2024/03/26 05:42:59;;;;;;;3.30;1.40;;;5.60;99.90;;;;;;4988206;28;20034;-56
2024/03/26 05:45:25;;;;;;;5.32;1.55;;;5.60;99.90;;;;;;4990347;28;20434;-56
2024/03/26 05:47:51;;;;;;;6.60;2.42;;;5.60;99.90;;;;;;4994655;28;20037;-56
2024/03/26 05:50:17;;;;;;;2.42;1.25;;;5.70;99.90;;;;;;4996501;28;20363;-54
2024/03/26 05:52:42;;;;;;;4.72;1.70;;;5.70;99.90;;;;;;4986768;28;20102;-54
2024/03/26 05:55:08;;;;;;;2.92;1.40;;;5.70;99.90;;;;;;4990824;28;20519;-56
2024/03/26 05:57:34;;;;;;;1.80;1.48;;;5.80;99.90;;;;;;4992488;28;20065;-56
2024/03/26 05:59:59;;;;;;;3.80;1.42;;;5.80;99.90;;;;;;4995307;28;20082;-56
2024/03/26 06:02:25;;;;;;;4.88;1.73;;;5.80;99.90;;;;;;4992207;28;20030;-53
2024/03/26 06:04:50;;;;;;;5.97;1.45;;;5.90;99.90;;;;;;4991692;28;20394;-55
2024/03/26 06:07:16;;;;;;;3.42;1.75;;;5.90;99.90;;;;;;4989734;28;20061;-55
2024/03/26 06:09:41;;;;;;;4.10;1.38;;;5.90;99.90;;;;;;4994974;28;20061;-55
2024/03/26 06:12:09;;;;;;;3.55;1.55;;;5.90;99.90;;;;;;4989698;28;20023;-56
2024/03/26 06:14:34;;;;;;;2.55;1.25;;;6.00;99.90;;;;;;4995233;28;20245;-57
2024/03/26 06:17:00;;;;;;;2.70;1.52;;;6.00;99.90;;;;;;4983846;28;20130;-52
2024/03/26 06:19:25;;;;;;;4.72;1.42;;;6.10;99.90;;;;;;4993865;28;20022;-56
2024/03/26 06:21:52;;;;;;;3.78;1.60;;;6.10;99.90;;;;;;4992511;28;20026;-57
2024/03/26 06:24:18;;;;;;;1.90;1.50;;;6.10;99.90;;;;;;4989700;28;20026;-53
2024/03/26 06:26:43;;;;;;;3.60;1.42;;;6.10;99.90;;;;;;4994733;28;20095;-56
2024/03/26 06:29:09;;;;;;;2.70;1.48;;;6.20;99.90;;;;;;4986676;28;20109;-57
2024/03/26 06:31:34;;;;;;;3.13;1.45;;;6.20;99.90;;;;;;4994367;28;20030;-55
2024/03/26 06:34:00;;;;;;;6.38;1.73;;;6.30;99.90;;;;;;4986031;28;20034;-53
2024/03/26 06:36:25;;;;;;;4.28;1.33;;;6.40;99.90;;;;;;4987315;28;20027;-56
2024/03/26 06:38:52;;;;;;;4.65;2.00;;;6.40;99.90;;;;;;4989146;28;20053;-53
2024/03/26 06:41:18;;;;;;;4.95;1.65;;;6.50;99.90;;;;;;4993984;28;20488;-55
2024/03/26 06:43:43;;;;;;;3.72;2.20;;;6.60;99.90;;;;;;4993832;28;20038;-54
2024/03/26 06:46:09;;;;;;;4.80;1.40;;;6.60;99.90;;;;;;4992419;28;20414;-55
2024/03/26 06:48:34;;;;;;;4.25;1.55;;;6.70;99.90;;;;;;4991208;28;20371;-55
2024/03/26 06:51:01;;;;;;;7.38;3.05;;;6.70;99.90;;;;;;4989263;28;20478;-55
2024/03/26 06:53:26;;;;;;;5.93;2.40;;;6.80;99.90;;;;;;4983870;28;20093;-53
2024/03/26 06:55:52;;;;;;;5.40;1.23;;;6.80;99.90;;;;;;4979196;28;20034;-53
2024/03/26 06:58:17;;;;;;;4.10;1.73;;;6.80;99.90;;;;;;4989054;28;20023;-54
2024/03/26 07:00:43;;;;;;;3.10;1.80;;;6.80;99.90;;;;;;4991891;28;20026;-52
2024/03/26 07:03:08;;;;;;;3.72;1.55;;;6.90;99.90;;;;;;4987033;28;20050;-53
2024/03/26 07:05:34;;;;;;;4.55;1.42;;;6.90;99.90;;;;;;4983825;28;20035;-53
2024/03/26 07:07:59;;;;;;;1.73;1.17;;;7.00;99.90;;;;;;4991449;28;20050;-54
2024/03/26 07:10:25;;;;;;;3.90;1.60;;;7.10;99.90;;;;;;4994827;28;20065;-55
2024/03/26 07:12:51;;;;;;;4.25;1.55;;;7.10;99.90;;;;;;4992002;28;20046;-56
2024/03/26 07:15:18;;;;;;;4.47;1.98;;;7.20;99.90;;;;;;4991461;28;20436;-57
2024/03/26 07:17:43;;;;;;;4.10;1.55;;;7.20;99.90;;;;;;4987035;28;20035;-55
2024/03/26 07:20:09;;;;;;;4.05;1.40;;;7.20;99.90;;;;;;4988835;28;20022;-57
2024/03/26 07:22:37;;;;;;;4.47;1.65;;;7.30;99.90;;;;;;4993379;28;20504;-57
2024/03/26 07:25:03;;;;;;;3.47;1.83;;;7.30;99.90;;;;;;4994835;28;20049;-57
2024/03/26 07:27:29;;;;;;;2.90;1.38;;;7.40;99.90;;;;;;4994228;28;20124;-55
2024/03/26 07:29:54;;;;;;;2.55;1.38;;;7.40;99.90;;;;;;4992292;28;20672;-56
2024/03/26 07:32:20;;;;;;;2.50;1.50;;;7.40;99.90;;;;;;4984637;28;20431;-56
2024/03/26 07:34:46;;;;;;;5.43;1.45;;;7.50;99.90;;;;;;5020640;23;20066;-53
2024/03/26 07:37:11;;;;;;;3.17;1.48;;;7.50;99.90;;;;;;5001267;28;20474;-54
2024/03/26 07:39:37;;;;;;;3.78;1.98;;;7.50;99.90;;;;;;5005249;28;20557;-51
2024/03/26 07:42:02;;;;;;;5.18;1.90;;;7.60;99.90;;;;;;4994140;28;21499;-50
2024/03/26 07:44:29;;;;;;;5.07;1.95;;;7.70;99.90;;;;;;4999944;28;20109;-51
2024/03/26 07:46:54;;;;;;;3.55;1.40;;;7.80;99.90;;;;;;5001670;28;20025;-49
2024/03/26 07:49:20;;;;;;;3.88;1.48;;;7.70;99.90;;;;;;5000552;28;20500;-54
2024/03/26 07:51:46;;;;;;;6.00;1.88;;;7.70;99.90;;;;;;5000600;28;20018;-52
2024/03/26 07:54:12;;;;;;;7.68;2.35;;;7.80;99.90;;;;;;5003490;28;20521;-55
2024/03/26 07:56:37;;;;;;;4.75;2.22;;;7.80;99.90;;;;;;5002270;28;20401;-54
2024/03/26 07:59:03;;;;;;;2.90;1.70;;;7.90;99.90;;;;;;5012025;28;20033;-54
2024/03/26 08:01:28;;;;;;;3.70;1.80;;;7.80;99.90;;;;;;5009974;28;20104;-53
2024/03/26 08:03:54;;;;;;;4.22;2.28;;;7.80;99.90;;;;;;5012494;28;20030;-54
2024/03/26 08:06:19;;;;;;;4.13;1.38;;;7.90;99.90;;;;;;5012398;28;20054;-50
2024/03/26 08:08:50;;;;;;;5.78;3.63;;;7.90;99.90;;;;;;5012226;28;20034;-50
2024/03/26 08:11:16;;;;;;;6.97;2.83;;;7.90;99.90;;;;;;5002932;28;20033;-55
2024/03/26 08:13:42;;;;;;;3.35;2.15;;;8.00;99.90;;;;;;5002943;28;20029;-54
2024/03/26 08:16:08;;;;;;;5.35;2.00;;;8.00;99.90;;;;;;5003408;28;20379;-50
2024/03/26 08:18:33;;;;;;;5.82;3.50;;;8.00;99.90;;;;;;5009287;28;20036;-53
2024/03/26 08:21:00;;;;;;;2.60;1.95;;;8.00;99.90;;;;;;5009668;28;20409;-54
2024/03/26 08:23:26;;;;;;;18.48;9.57;;;8.00;99.90;;;;;;5012126;28;20034;-53
2024/03/26 08:25:51;;;;;;;33.80;14.25;;;7.90;99.90;;;;;;5002888;28;20027;-53
2024/03/26 08:28:17;;;;;;;25.35;10.75;;;7.90;99.90;;;;;;5003849;28;20036;-49
2024/03/26 08:30:43;;;;;;;14.68;6.30;;;7.90;99.90;;;;;;5005261;28;20034;-53
2024/03/26 08:33:09;;;;;;;14.25;6.55;;;7.70;99.90;;;;;;5008413;28;20110;-51
2024/03/26 08:35:39;;;;;;;29.35;12.63;;;7.70;99.90;;;;;;5009607;28;20109;-51
2024/03/26 08:38:05;;;;;;;20.65;9.55;;;7.60;99.90;;;;;;5004823;28;20401;-49
2024/03/26 08:40:31;;;;;;;40.08;16.48;;;7.50;99.90;;;;;;5008284;28;20030;-52
2024/03/26 08:42:56;;;;;;;6.65;3.08;;;7.50;99.90;;;;;;5007074;28;20072;-50
2024/03/26 08:45:23;;;;;;;14.95;5.80;;;7.50;99.90;;;;;;5010741;28;20022;-53
2024/03/26 08:47:48;;;;;;;4.38;2.22;;;7.50;99.90;;;;;;5008341;28;20054;-51
2024/03/26 08:50:14;;;;;;;8.73;3.97;;;7.50;99.90;;;;;;5011432;28;20072;-53
2024/03/26 08:52:39;;;;;;;6.60;3.35;;;7.50;99.90;;;;;;5008315;28;20076;-52
2024/03/26 08:55:05;;;;;;;6.20;2.40;;;7.60;99.90;;;;;;5000915;28;20116;-53
2024/03/26 08:57:31;;;;;;;4.85;2.20;;;7.60;99.90;;;;;;5001189;28;20077;-51
2024/03/26 08:59:56;;;;;;;2.75;1.50;;;7.70;99.90;;;;;;5005751;28;20433;-50
2024/03/26 09:02:22;;;;;;;9.88;5.63;;;7.80;99.90;;;;;;4999901;28;20729;-52
2024/03/26 09:04:49;;;;;;;7.03;3.15;;;7.90;99.90;;;;;;5008271;28;20474;-50
2024/03/26 09:07:15;;;;;;;8.05;2.65;;;8.00;99.90;;;;;;4998682;28;20037;-54
2024/03/26 09:09:41;;;;;;;3.42;1.90;;;8.10;99.90;;;;;;5001304;28;20046;-54
2024/03/26 09:12:07;;;;;;;39.00;20.30;;;8.30;99.90;;;;;;5007337;28;20117;-51
2024/03/26 09:14:32;;;;;;;75.40;32.45;;;8.50;99.90;;;;;;5003407;28;20481;-54
2024/03/26 09:16:58;;;;;;;26.20;11.07;;;8.70;99.90;;;;;;5007816;28;20037;-52
2024/03/26 09:19:23;;;;;;;10.00;4.20;;;8.90;99.90;;;;;;5016476;28;20034;-54
2024/03/26 09:21:49;;;;;;;5.35;2.63;;;9.00;99.90;;;;;;5007079;28;20045;-55
2024/03/26 09:24:14;;;;;;;5.15;2.40;;;9.10;99.90;;;;;;5001403;28;20382;-51
2024/03/26 09:26:40;;;;;;;11.80;5.22;;;9.30;99.90;;;;;;5002170;28;20033;-53
2024/03/26 09:29:06;;;;;;;30.90;17.70;;;9.30;99.90;;;;;;5004477;28;20030;-55
2024/03/26 09:31:32;;;;;;;17.10;8.90;;;9.20;99.90;;;;;;4999815;28;20034;-52
2024/03/26 09:33:57;;;;;;;4.97;3.30;;;9.40;99.90;;;;;;5003157;28;20575;-57
2024/03/26 09:36:23;;;;;;;4.30;2.10;;;9.70;99.90;;;;;;5008916;28;20034;-49
2024/03/26 09:38:49;;;;;;;4.57;2.15;;;9.70;99.90;;;;;;5005404;28;20042;-52
2024/03/26 09:41:18;;;;;;;15.55;8.02;;;9.90;99.90;;;;;;4998824;28;20489;-51
2024/03/26 09:43:44;;;;;;;31.48;12.98;;;10.00;99.90;;;;;;5002771;28;20026;-52
2024/03/26 09:46:12;;;;;;;54.38;22.45;;;10.20;99.90;;;;;;5011313;28;20037;-50
2024/03/26 09:48:37;;;;;;;4.47;2.28;;;10.30;99.90;;;;;;5001746;28;20038;-56
2024/03/26 09:51:06;;;;;;;8.65;7.30;;;10.40;99.90;;;;;;5008766;28;20540;-51
2024/03/26 09:53:33;;;;;;;10.18;6.63;;;10.30;99.90;;;;;;4989795;28;20120;-52
2024/03/26 09:55:58;;;;;;;12.30;8.05;;;10.30;99.90;;;;;;4995856;28;20023;-54
2024/03/26 09:58:24;;;;;;;6.40;2.80;;;10.30;99.90;;;;;;5004166;28;20052;-52
2024/03/26 10:00:50;;;;;;;3.95;1.98;;;10.30;99.90;;;;;;5004259;28;20129;-50
2024/03/26 10:03:20;;;;;;;7.18;3.58;;;10.30;99.90;;;;;;5001886;28;20025;-53
2024/03/26 10:05:46;;;;;;;7.32;1.88;;;10.20;99.90;;;;;;4996055;28;20102;-57
2024/03/26 10:08:12;;;;;;;4.28;1.90;;;10.40;99.90;;;;;;5004950;28;20121;-55
2024/03/26 10:10:44;;;;;;;5.45;1.90;;;10.70;99.90;;;;;;5005612;28;20454;-56
2024/03/26 10:13:11;;;;;;;1.63;1.33;;;10.70;99.90;;;;;;5007017;28;20034;-58
2024/03/26 10:15:41;;;;;;;1.50;1.08;;;10.80;99.90;;;;;;5005968;28;20034;-55
2024/03/26 10:18:08;;;;;;;2.95;1.63;;;11.00;99.90;;;;;;4999001;28;20049;-54
2024/03/26 10:20:34;;;;;;;5.00;1.58;;;11.00;99.90;;;;;;4999707;28;20034;-58
2024/03/26 10:23:00;;;;;;;3.75;1.75;;;11.10;99.90;;;;;;5009159;28;20089;-58
2024/03/26 10:25:29;;;;;;;3.25;2.38;;;11.30;99.90;;;;;;5007628;28;20560;-54
2024/03/26 10:27:56;;;;;;;4.43;1.63;;;11.40;99.90;;;;;;5001973;28;20083;-57
2024/03/26 10:30:22;;;;;;;4.07;1.67;;;11.40;99.90;;;;;;5009055;28;20037;-58
2024/03/26 10:32:55;;;;;;;4.78;1.50;;;11.40;99.90;;;;;;5010963;28;20065;-56
2024/03/26 10:35:22;;;;;;;4.43;1.70;;;11.40;99.90;;;;;;5005069;28;20038;-58
2024/03/26 10:37:53;;;;;;;3.22;1.40;;;11.50;99.90;;;;;;5009291;28;20025;-54
2024/03/26 10:40:38;;;;;;;3.95;1.40;;;11.70;99.90;;;;;;5002382;28;20071;-57
2024/03/26 10:43:04;;;;;;;3.05;1.73;;;12.00;99.90;;;;;;5009433;28;20052;-55
2024/03/26 10:45:30;;;;;;;6.80;1.92;;;12.10;99.50;;;;;;5012168;28;20062;-56
2024/03/26 10:47:56;;;;;;;7.38;1.85;;;12.30;99.50;;;;;;5012791;28;20041;-57
2024/03/26 10:50:24;;;;;;;3.95;2.60;;;12.40;99.90;;;;;;5013734;28;20026;-53
2024/03/26 10:52:51;;;;;;;5.70;1.48;;;12.50;98.00;;;;;;5013341;28;20076;-57
2024/03/26 10:55:17;;;;;;;4.78;1.40;;;12.50;98.00;;;;;;5011822;28;20060;-58
2024/03/26 10:57:44;;;;;;;6.45;2.70;;;12.60;98.20;;;;;;5010902;28;20029;-57
2024/03/26 11:00:12;;;;;;;6.10;2.72;;;12.60;98.70;;;;;;5011681;28;20394;-56
2024/03/26 11:02:44;;;;;;;3.10;2.00;;;12.60;97.90;;;;;;5007648;28;20026;-57
2024/03/26 11:05:10;;;;;;;3.90;2.13;;;12.60;97.80;;;;;;5006847;28;20080;-55
2024/03/26 11:07:36;;;;;;;6.95;4.32;;;12.40;97.20;;;;;;5007383;28;20080;-56
2024/03/26 11:10:09;;;;;;;14.18;8.02;;;12.40;98.00;;;;;;5013130;28;20030;-57
2024/03/26 11:12:38;;;;;;;10.30;4.03;;;12.40;98.10;;;;;;5006206;28;20033;-53
2024/03/26 11:15:18;;;;;;;6.53;2.80;;;12.30;97.10;;;;;;4998829;28;20034;-56
2024/03/26 11:18:10;;;;;;;2.05;1.23;;;12.40;97.30;;;;;;5006387;28;20370;-57
2024/03/26 11:20:36;;;;;;;7.10;1.60;;;12.50;98.00;;;;;;4981798;28;20498;-58
2024/03/26 11:23:04;;;;;;;3.03;1.55;;;12.60;98.10;;;;;;4990167;28;20027;-54
2024/03/26 11:25:31;;;;;;;4.90;1.92;;;12.80;97.30;;;;;;4992560;28;20070;-53
2024/03/26 11:27:58;;;;;;;4.55;2.20;;;12.80;98.60;;;;;;4990114;28;20058;-55
2024/03/26 11:30:32;;;;;;;1.80;1.30;;;12.90;97.20;;;;;;4984028;28;20035;-54
2024/03/26 11:32:59;;;;;;;;;;;13.00;97.50;;;;;;4982759;28;20026;-57
2024/03/26 11:35:29;;;;;;;1.65;1.38;;;13.00;97.60;;;;;;4985350;28;19914;-56
2024/03/26 11:37:58;;;;;;;3.92;1.83;;;13.00;96.80;;;;;;4982119;28;20061;-54
2024/03/26 11:40:25;;;;;;;2.97;1.50;;;13.00;96.80;;;;;;4983655;28;20061;-53
2024/03/26 11:42:54;;;;;;;7.80;1.65;;;12.90;97.10;;;;;;4981101;28;20027;-56
2024/03/26 11:45:20;;;;;;;3.63;1.48;;;13.00;97.90;;;;;;4983368;28;20030;-54
2024/03/26 11:47:46;;;;;;;6.82;1.38;;;12.80;96.80;;;;;;4984793;28;20027;-51
2024/03/26 11:50:11;;;;;;;7.15;1.27;;;12.80;97.30;;;;;;4988293;28;20031;-53
2024/03/26 11:52:38;;;;;;;4.40;1.25;;;12.70;98.10;;;;;;4988213;28;20478;-53
2024/03/26 11:55:05;;;;;;;3.25;1.08;;;12.50;97.10;;;;;;4992385;28;20097;-52
2024/03/26 11:57:32;;;;;;;5.63;1.10;;;12.40;97.00;;;;;;4987360;28;20069;-55
2024/03/26 11:59:57;;;;;;;6.20;1.00;;;12.40;97.70;;;;;;4985088;28;20033;-56
2024/03/26 12:02:23;;;;;;;4.55;1.30;;;12.40;97.60;;;;;;4988490;28;20022;-58
2024/03/26 12:04:49;;;;;;;4.45;1.42;;;12.40;97.50;;;;;;4991392;28;20041;-52
2024/03/26 12:07:25;;;;;;;3.45;1.42;;;12.50;97.20;;;;;;4983274;28;20041;-56
2024/03/26 12:09:50;;;;;;;6.07;1.17;;;12.60;96.90;;;;;;4988235;28;20034;-53
2024/03/26 12:12:16;;;;;;;2.90;1.38;;;12.70;98.00;;;;;;4989181;28;20034;-55
2024/03/26 12:14:42;;;;;;;6.80;3.28;;;12.90;96.70;;;;;;4987182;28;20042;-56
2024/03/26 12:17:08;;;;;;;4.35;2.00;;;13.00;96.60;;;;;;4984766;28;20030;-56
2024/03/26 12:19:34;;;;;;;4.57;1.10;;;13.20;96.20;;;;;;4981167;28;20114;-55
2024/03/26 12:22:10;;;;;;;4.10;1.52;;;13.20;96.00;;;;;;4991899;28;20029;-53
2024/03/26 12:24:36;;;;;;;2.22;1.25;;;13.10;96.20;;;;;;4984411;28;20033;-56
2024/03/26 12:27:03;;;;;;;4.68;1.40;;;13.10;96.50;;;;;;4984511;28;20034;-53
2024/03/26 12:29:28;;;;;;;4.07;1.25;;;12.90;96.10;;;;;;4978962;28;20038;-52
2024/03/26 12:31:54;;;;;;;19.85;9.75;;;12.90;96.90;;;;;;4987008;28;20045;-56
2024/03/26 12:34:20;;;;;;;10.20;5.00;;;13.00;97.40;;;;;;4985595;28;20056;-54
2024/03/26 12:36:45;;;;;;;12.32;2.90;;;13.20;96.90;;;;;;4983037;28;20027;-52
2024/03/26 12:39:12;;;;;;;3.60;1.60;;;13.40;96.50;;;;;;4981319;28;20041;-53
2024/03/26 12:41:38;;;;;;;6.50;2.22;;;13.40;96.50;;;;;;4989482;28;20061;-54
2024/03/26 12:44:06;;;;;;;5.28;2.75;;;13.20;97.00;;;;;;4990603;28;20081;-56
2024/03/26 12:46:32;;;;;;;5.18;1.48;;;13.20;95.90;;;;;;4987512;28;20026;-56